sensor_id;sensor_type;location;lat;lon;timestamp;temperature;humidity
31687;DHT22;18285;51.330;4.946;2023-06-04T00:24:01;23.90;33.10
31687;DHT22;18285;51.330;4.946;2023-06-04T00:48:12;23.90;33.60
31687;DHT22;18285;51.330;4.946;2023-06-04T01:12:22;23.90;34.00
31687;DHT22;18285;51.330;4.946;2023-06-04T01:36:33;23.90;34.10
31687;DHT22;18285;51.330;4.946;2023-06-04T02:00:44;24.00;34.20
31687;DHT22;18285;51.330;4.946;2023-06-04T02:24:55;23.90;34.20
31687;DHT22;18285;51.330;4.946;2023-06-04T02:49:06;23.90;34.30
31687;DHT22;18285;51.330;4.946;2023-06-04T03:13:16;23.90;34.50
31687;DHT22;18285;51.330;4.946;2023-06-04T03:37:27;23.90;34.30
31687;DHT22;18285;51.330;4.946;2023-06-04T04:01:38;23.90;34.40
31687;DHT22;18285;51.330;4.946;2023-06-04T04:25:49;23.90;34.50
31687;DHT22;18285;51.330;4.946;2023-06-04T04:49:59;24.00;34.40
31687;DHT22;18285;51.330;4.946;2023-06-04T05:14:10;23.90;34.50
31687;DHT22;18285;51.330;4.946;2023-06-04T05:38:21;23.90;34.80
31687;DHT22;18285;51.330;4.946;2023-06-04T06:02:36;23.80;34.90
31687;DHT22;18285;51.330;4.946;2023-06-04T06:26:48;23.90;34.70
31687;DHT22;18285;51.330;4.946;2023-06-04T06:50:58;24.00;34.90
31687;DHT22;18285;51.330;4.946;2023-06-04T07:15:09;24.00;34.90
31687;DHT22;18285;51.330;4.946;2023-06-04T07:39:20;24.00;34.90
31687;DHT22;18285;51.330;4.946;2023-06-04T08:03:32;23.90;34.20
31687;DHT22;18285;51.330;4.946;2023-06-04T08:27:42;23.90;33.50
31687;DHT22;18285;51.330;4.946;2023-06-04T08:51:53;23.90;32.70
31687;DHT22;18285;51.330;4.946;2023-06-04T09:16:05;23.80;32.20
31687;DHT22;18285;51.330;4.946;2023-06-04T09:40:18;23.90;31.60
31687;DHT22;18285;51.330;4.946;2023-06-04T10:04:30;23.90;31.30
31687;DHT22;18285;51.330;4.946;2023-06-04T10:28:42;23.90;31.70
31687;DHT22;18285;51.330;4.946;2023-06-04T10:52:54;24.00;33.20
31687;DHT22;18285;51.330;4.946;2023-06-04T11:17:12;24.00;36.00
31687;DHT22;18285;51.330;4.946;2023-06-04T11:41:32;24.00;36.40
31687;DHT22;18285;51.330;4.946;2023-06-04T12:05:46;24.00;36.40
31687;DHT22;18285;51.330;4.946;2023-06-04T12:30:01;24.00;36.30
31687;DHT22;18285;51.330;4.946;2023-06-04T12:54:12;24.00;36.40
31687;DHT22;18285;51.330;4.946;2023-06-04T13:18:23;24.00;36.50
31687;DHT22;18285;51.330;4.946;2023-06-04T13:42:34;24.00;36.60
31687;DHT22;18285;51.330;4.946;2023-06-04T14:06:44;24.00;36.90
31687;DHT22;18285;51.330;4.946;2023-06-04T14:30:57;24.00;37.00
31687;DHT22;18285;51.330;4.946;2023-06-04T14:55:09;24.10;36.70
31687;DHT22;18285;51.330;4.946;2023-06-04T15:19:19;24.10;37.00
31687;DHT22;18285;51.330;4.946;2023-06-04T15:43:30;24.00;37.20
31687;DHT22;18285;51.330;4.946;2023-06-04T16:07:41;24.10;37.30
31687;DHT22;18285;51.330;4.946;2023-06-04T16:31:52;24.10;37.40
31687;DHT22;18285;51.330;4.946;2023-06-04T16:56:02;24.10;37.40
31687;DHT22;18285;51.330;4.946;2023-06-04T17:20:13;24.10;37.40
31687;DHT22;18285;51.330;4.946;2023-06-04T17:44:24;24.10;37.50
31687;DHT22;18285;51.330;4.946;2023-06-04T18:08:35;24.10;38.10
31687;DHT22;18285;51.330;4.946;2023-06-04T18:32:45;24.10;37.50
31687;DHT22;18285;51.330;4.946;2023-06-04T18:56:56;24.10;37.60
31687;DHT22;18285;51.330;4.946;2023-06-04T19:21:07;24.10;37.60
31687;DHT22;18285;51.330;4.946;2023-06-04T19:45:17;24.20;37.60
31687;DHT22;18285;51.330;4.946;2023-06-04T20:09:28;24.10;37.80
31687;DHT22;18285;51.330;4.946;2023-06-04T20:33:39;24.10;38.20
31687;DHT22;18285;51.330;4.946;2023-06-04T20:57:50;24.10;38.40
31687;DHT22;18285;51.330;4.946;2023-06-04T21:22:00;24.10;38.50
31687;DHT22;18285;51.330;4.946;2023-06-04T21:46:11;24.10;38.60
31687;DHT22;18285;51.330;4.946;2023-06-04T22:10:22;24.10;38.80
31687;DHT22;18285;51.330;4.946;2023-06-04T22:34:33;24.10;38.90
31687;DHT22;18285;51.330;4.946;2023-06-04T22:58:43;24.10;39.00
31687;DHT22;18285;51.330;4.946;2023-06-04T23:22:54;24.10;39.10
31687;DHT22;18285;51.330;4.946;2023-06-04T23:47:05;24.10;39.20
